sensor_id;sensor_type;location;lat;lon;timestamp;temperature;humidity
57218;DHT22;43078;52.972;6.482;2022-12-10T00:01:52;-0.10;99.90
57218;DHT22;43078;52.972;6.482;2022-12-10T00:04:18;-0.10;99.90
57218;DHT22;43078;52.972;6.482;2022-12-10T00:06:44;-0.10;99.90
57218;DHT22;43078;52.972;6.482;2022-12-10T00:09:13;-0.10;99.90
57218;DHT22;43078;52.972;6.482;2022-12-10T00:11:40;-0.10;99.90
57218;DHT22;43078;52.972;6.482;2022-12-10T00:14:06;-0.10;99.90
57218;DHT22;43078;52.972;6.482;2022-12-10T00:16:33;-0.10;99.90
57218;DHT22;43078;52.972;6.482;2022-12-10T00:18:59;-0.10;99.90
57218;DHT22;43078;52.972;6.482;2022-12-10T00:21:31;-0.20;99.90
57218;DHT22;43078;52.972;6.482;2022-12-10T00:23:57;-0.20;99.90
57218;DHT22;43078;52.972;6.482;2022-12-10T00:26:25;-0.20;99.90
57218;DHT22;43078;52.972;6.482;2022-12-10T00:28:52;-0.10;99.90
57218;DHT22;43078;52.972;6.482;2022-12-10T00:31:24;-0.10;99.90
57218;DHT22;43078;52.972;6.482;2022-12-10T00:33:50;-0.10;99.90
57218;DHT22;43078;52.972;6.482;2022-12-10T00:36:24;-0.10;99.90
57218;DHT22;43078;52.972;6.482;2022-12-10T00:38:51;-0.10;99.90
57218;DHT22;43078;52.972;6.482;2022-12-10T00:41:17;-0.10;99.90
57218;DHT22;43078;52.972;6.482;2022-12-10T00:43:43;-0.10;99.90
57218;DHT22;43078;52.972;6.482;2022-12-10T00:46:10;-0.20;99.90
57218;DHT22;43078;52.972;6.482;2022-12-10T00:48:36;-0.20;99.90
57218;DHT22;43078;52.972;6.482;2022-12-10T00:51:05;-0.20;99.90
57218;DHT22;43078;52.972;6.482;2022-12-10T00:53:33;-0.10;99.90
57218;DHT22;43078;52.972;6.482;2022-12-10T00:55:59;-0.20;99.90
57218;DHT22;43078;52.972;6.482;2022-12-10T00:58:30;-0.20;99.90
57218;DHT22;43078;52.972;6.482;2022-12-10T01:03:44;-0.20;99.90
57218;DHT22;43078;52.972;6.482;2022-12-10T01:06:13;-0.20;99.90
57218;DHT22;43078;52.972;6.482;2022-12-10T01:08:39;-0.20;99.90
57218;DHT22;43078;52.972;6.482;2022-12-10T01:11:05;-0.20;99.90
57218;DHT22;43078;52.972;6.482;2022-12-10T01:13:31;-0.20;99.90
57218;DHT22;43078;52.972;6.482;2022-12-10T01:16:00;-0.20;99.90
57218;DHT22;43078;52.972;6.482;2022-12-10T01:18:26;-0.20;99.90
57218;DHT22;43078;52.972;6.482;2022-12-10T01:20:53;-0.20;99.90
57218;DHT22;43078;52.972;6.482;2022-12-10T01:23:19;-0.20;99.90
57218;DHT22;43078;52.972;6.482;2022-12-10T01:25:44;-0.20;99.90
57218;DHT22;43078;52.972;6.482;2022-12-10T01:28:10;-0.20;99.90
57218;DHT22;43078;52.972;6.482;2022-12-10T01:30:36;-0.30;99.90
57218;DHT22;43078;52.972;6.482;2022-12-10T01:33:01;-0.30;99.90
57218;DHT22;43078;52.972;6.482;2022-12-10T01:35:27;-0.20;99.90
57218;DHT22;43078;52.972;6.482;2022-12-10T01:37:52;-0.30;99.90
57218;DHT22;43078;52.972;6.482;2022-12-10T01:40:18;-0.30;99.90
57218;DHT22;43078;52.972;6.482;2022-12-10T01:42:44;-0.30;99.90
57218;DHT22;43078;52.972;6.482;2022-12-10T01:45:11;-0.30;99.90
57218;DHT22;43078;52.972;6.482;2022-12-10T01:47:38;-0.30;99.90
57218;DHT22;43078;52.972;6.482;2022-12-10T01:50:06;-0.40;99.90
57218;DHT22;43078;52.972;6.482;2022-12-10T01:52:32;-0.40;99.90
57218;DHT22;43078;52.972;6.482;2022-12-10T01:54:58;-0.40;99.90
57218;DHT22;43078;52.972;6.482;2022-12-10T01:57:25;-0.40;99.90
57218;DHT22;43078;52.972;6.482;2022-12-10T02:00:03;-0.40;99.90
57218;DHT22;43078;52.972;6.482;2022-12-10T02:03:00;-0.40;99.90
57218;DHT22;43078;52.972;6.482;2022-12-10T02:05:34;-0.40;99.90
57218;DHT22;43078;52.972;6.482;2022-12-10T02:08:29;-0.40;99.90
57218;DHT22;43078;52.972;6.482;2022-12-10T02:11:16;-0.50;99.90
57218;DHT22;43078;52.972;6.482;2022-12-10T02:13:49;-0.50;99.90
57218;DHT22;43078;52.972;6.482;2022-12-10T02:16:30;-0.50;99.90
57218;DHT22;43078;52.972;6.482;2022-12-10T02:21:50;-0.50;99.90
57218;DHT22;43078;52.972;6.482;2022-12-10T02:24:23;-0.50;99.90
57218;DHT22;43078;52.972;6.482;2022-12-10T02:29:34;-0.60;99.90
57218;DHT22;43078;52.972;6.482;2022-12-10T02:32:17;-0.60;99.90
57218;DHT22;43078;52.972;6.482;2022-12-10T02:34:49;-0.60;99.90
57218;DHT22;43078;52.972;6.482;2022-12-10T02:37:21;-0.60;99.90
57218;DHT22;43078;52.972;6.482;2022-12-10T02:39:51;-0.60;99.90
57218;DHT22;43078;52.972;6.482;2022-12-10T02:42:18;-0.60;99.90
57218;DHT22;43078;52.972;6.482;2022-12-10T02:44:45;-0.60;99.90
57218;DHT22;43078;52.972;6.482;2022-12-10T02:47:12;-0.60;99.90
57218;DHT22;43078;52.972;6.482;2022-12-10T02:49:40;-0.60;99.90
57218;DHT22;43078;52.972;6.482;2022-12-10T02:52:12;-0.60;99.90
57218;DHT22;43078;52.972;6.482;2022-12-10T02:54:42;-0.60;99.90
57218;DHT22;43078;52.972;6.482;2022-12-10T02:57:14;-0.60;99.90
57218;DHT22;43078;52.972;6.482;2022-12-10T03:13:12;-0.60;99.90
57218;DHT22;43078;52.972;6.482;2022-12-10T03:15:41;-0.60;99.90
57218;DHT22;43078;52.972;6.482;2022-12-10T03:18:09;-0.70;99.90
57218;DHT22;43078;52.972;6.482;2022-12-10T03:20:39;-0.60;99.90
57218;DHT22;43078;52.972;6.482;2022-12-10T03:23:08;-0.60;99.90
57218;DHT22;43078;52.972;6.482;2022-12-10T03:25:35;-0.60;99.90
57218;DHT22;43078;52.972;6.482;2022-12-10T03:28:03;-0.60;99.90
57218;DHT22;43078;52.972;6.482;2022-12-10T03:30:31;-0.60;99.90
57218;DHT22;43078;52.972;6.482;2022-12-10T03:32:57;-0.60;99.90
57218;DHT22;43078;52.972;6.482;2022-12-10T03:35:24;-0.60;99.90
57218;DHT22;43078;52.972;6.482;2022-12-10T03:37:50;-0.60;99.90
57218;DHT22;43078;52.972;6.482;2022-12-10T03:40:20;-0.60;99.90
57218;DHT22;43078;52.972;6.482;2022-12-10T03:42:46;-0.60;99.90
57218;DHT22;43078;52.972;6.482;2022-12-10T03:45:12;-0.60;99.90
57218;DHT22;43078;52.972;6.482;2022-12-10T03:47:39;-0.70;99.90
57218;DHT22;43078;52.972;6.482;2022-12-10T03:50:05;-0.70;99.90
57218;DHT22;43078;52.972;6.482;2022-12-10T03:52:31;-0.70;99.90
57218;DHT22;43078;52.972;6.482;2022-12-10T03:54:57;-0.70;99.90
57218;DHT22;43078;52.972;6.482;2022-12-10T03:57:23;-0.70;99.90
57218;DHT22;43078;52.972;6.482;2022-12-10T03:59:48;-0.70;99.90
57218;DHT22;43078;52.972;6.482;2022-12-10T04:02:14;-0.70;99.90
57218;DHT22;43078;52.972;6.482;2022-12-10T04:04:39;-0.70;99.90
57218;DHT22;43078;52.972;6.482;2022-12-10T04:07:05;-0.70;99.90
57218;DHT22;43078;52.972;6.482;2022-12-10T04:09:31;-0.70;99.90
57218;DHT22;43078;52.972;6.482;2022-12-10T04:11:57;-0.70;99.90
57218;DHT22;43078;52.972;6.482;2022-12-10T04:14:24;-0.80;99.90
57218;DHT22;43078;52.972;6.482;2022-12-10T04:17:08;-0.80;99.90
57218;DHT22;43078;52.972;6.482;2022-12-10T04:19:34;-0.80;99.90
57218;DHT22;43078;52.972;6.482;2022-12-10T04:22:00;-0.80;99.90
57218;DHT22;43078;52.972;6.482;2022-12-10T04:24:44;-0.80;99.90
57218;DHT22;43078;52.972;6.482;2022-12-10T04:27:30;-0.90;99.90
57218;DHT22;43078;52.972;6.482;2022-12-10T04:29:58;-0.80;99.90
57218;DHT22;43078;52.972;6.482;2022-12-10T04:32:25;-0.90;99.90
57218;DHT22;43078;52.972;6.482;2022-12-10T04:34:51;-0.80;99.90
57218;DHT22;43078;52.972;6.482;2022-12-10T04:37:17;-0.90;99.90
57218;DHT22;43078;52.972;6.482;2022-12-10T04:39:43;-0.90;99.90
57218;DHT22;43078;52.972;6.482;2022-12-10T04:42:09;-0.90;99.90
57218;DHT22;43078;52.972;6.482;2022-12-10T04:44:36;-0.90;99.90
57218;DHT22;43078;52.972;6.482;2022-12-10T04:47:03;-0.90;99.90
57218;DHT22;43078;52.972;6.482;2022-12-10T04:49:29;-1.00;99.90
57218;DHT22;43078;52.972;6.482;2022-12-10T04:51:54;-1.00;99.90
57218;DHT22;43078;52.972;6.482;2022-12-10T04:54:21;-1.00;99.90
57218;DHT22;43078;52.972;6.482;2022-12-10T04:56:46;-1.00;99.90
57218;DHT22;43078;52.972;6.482;2022-12-10T04:59:12;-1.00;99.90
57218;DHT22;43078;52.972;6.482;2022-12-10T05:01:38;-1.00;99.90
57218;DHT22;43078;52.972;6.482;2022-12-10T05:04:07;-1.10;99.90
57218;DHT22;43078;52.972;6.482;2022-12-10T05:06:34;-1.00;99.90
57218;DHT22;43078;52.972;6.482;2022-12-10T05:09:00;-1.10;99.90
57218;DHT22;43078;52.972;6.482;2022-12-10T05:11:29;-1.10;99.90
57218;DHT22;43078;52.972;6.482;2022-12-10T05:13:56;-1.10;99.90
57218;DHT22;43078;52.972;6.482;2022-12-10T05:16:23;-1.10;99.90
57218;DHT22;43078;52.972;6.482;2022-12-10T05:18:50;-1.10;99.90
57218;DHT22;43078;52.972;6.482;2022-12-10T05:21:18;-1.10;99.90
57218;DHT22;43078;52.972;6.482;2022-12-10T05:23:46;-1.10;99.90
57218;DHT22;43078;52.972;6.482;2022-12-10T05:26:19;-1.10;99.90
57218;DHT22;43078;52.972;6.482;2022-12-10T05:28:46;-1.10;99.90
57218;DHT22;43078;52.972;6.482;2022-12-10T05:31:34;-1.20;99.90
57218;DHT22;43078;52.972;6.482;2022-12-10T05:33:58;-1.20;99.90
57218;DHT22;43078;52.972;6.482;2022-12-10T05:36:27;-1.20;99.90
57218;DHT22;43078;52.972;6.482;2022-12-10T05:38:54;-1.20;99.90
57218;DHT22;43078;52.972;6.482;2022-12-10T05:41:22;-1.20;99.90
57218;DHT22;43078;52.972;6.482;2022-12-10T05:43:50;-1.20;99.90
57218;DHT22;43078;52.972;6.482;2022-12-10T05:46:22;-1.20;99.90
57218;DHT22;43078;52.972;6.482;2022-12-10T05:48:48;-1.20;99.90
57218;DHT22;43078;52.972;6.482;2022-12-10T05:51:16;-1.20;99.90
57218;DHT22;43078;52.972;6.482;2022-12-10T05:53:42;-1.20;99.90
57218;DHT22;43078;52.972;6.482;2022-12-10T05:56:13;-1.20;99.90
57218;DHT22;43078;52.972;6.482;2022-12-10T05:58:41;-1.20;99.90
57218;DHT22;43078;52.972;6.482;2022-12-10T06:01:13;-1.20;99.90
57218;DHT22;43078;52.972;6.482;2022-12-10T06:03:39;-1.10;99.90
57218;DHT22;43078;52.972;6.482;2022-12-10T06:06:05;-1.10;99.90
57218;DHT22;43078;52.972;6.482;2022-12-10T06:08:31;-1.10;99.90
57218;DHT22;43078;52.972;6.482;2022-12-10T06:11:01;-1.10;99.90
57218;DHT22;43078;52.972;6.482;2022-12-10T06:13:27;-1.10;99.90
57218;DHT22;43078;52.972;6.482;2022-12-10T06:15:53;-1.10;99.90
57218;DHT22;43078;52.972;6.482;2022-12-10T06:18:18;-1.10;99.90
57218;DHT22;43078;52.972;6.482;2022-12-10T06:20:44;-1.10;99.90
57218;DHT22;43078;52.972;6.482;2022-12-10T06:23:10;-1.10;99.90
57218;DHT22;43078;52.972;6.482;2022-12-10T06:25:38;-1.10;99.90
57218;DHT22;43078;52.972;6.482;2022-12-10T06:28:04;-1.10;99.90
57218;DHT22;43078;52.972;6.482;2022-12-10T06:30:30;-1.10;99.90
57218;DHT22;43078;52.972;6.482;2022-12-10T06:32:55;-1.10;99.90
57218;DHT22;43078;52.972;6.482;2022-12-10T06:35:21;-1.10;99.90
57218;DHT22;43078;52.972;6.482;2022-12-10T06:37:48;-1.10;99.90
57218;DHT22;43078;52.972;6.482;2022-12-10T06:40:14;-1.00;99.90
57218;DHT22;43078;52.972;6.482;2022-12-10T06:42:39;-1.00;99.90
57218;DHT22;43078;52.972;6.482;2022-12-10T06:45:05;-1.00;99.90
57218;DHT22;43078;52.972;6.482;2022-12-10T06:47:31;-1.00;99.90
57218;DHT22;43078;52.972;6.482;2022-12-10T06:49:57;-1.00;99.90
57218;DHT22;43078;52.972;6.482;2022-12-10T06:52:22;-1.00;99.90
57218;DHT22;43078;52.972;6.482;2022-12-10T06:54:48;-1.00;99.90
57218;DHT22;43078;52.972;6.482;2022-12-10T06:57:13;-1.00;99.90
57218;DHT22;43078;52.972;6.482;2022-12-10T06:59:39;-1.00;99.90
57218;DHT22;43078;52.972;6.482;2022-12-10T07:02:05;-1.00;99.90
57218;DHT22;43078;52.972;6.482;2022-12-10T07:04:30;-1.00;99.90
57218;DHT22;43078;52.972;6.482;2022-12-10T07:06:56;-1.00;99.90
57218;DHT22;43078;52.972;6.482;2022-12-10T07:09:22;-0.90;99.90
57218;DHT22;43078;52.972;6.482;2022-12-10T07:11:47;-1.00;99.90
57218;DHT22;43078;52.972;6.482;2022-12-10T07:14:17;-1.00;99.90
57218;DHT22;43078;52.972;6.482;2022-12-10T07:16:42;-0.90;99.90
57218;DHT22;43078;52.972;6.482;2022-12-10T07:19:10;-0.90;99.90
57218;DHT22;43078;52.972;6.482;2022-12-10T07:21:39;-0.80;99.90
57218;DHT22;43078;52.972;6.482;2022-12-10T07:24:18;-0.90;99.90
57218;DHT22;43078;52.972;6.482;2022-12-10T07:26:45;-0.90;99.90
57218;DHT22;43078;52.972;6.482;2022-12-10T07:29:16;-0.90;99.90
57218;DHT22;43078;52.972;6.482;2022-12-10T07:31:42;-0.90;99.90
57218;DHT22;43078;52.972;6.482;2022-12-10T07:34:09;-0.90;99.90
57218;DHT22;43078;52.972;6.482;2022-12-10T07:36:34;-0.90;99.90
57218;DHT22;43078;52.972;6.482;2022-12-10T07:39:00;-0.90;99.90
57218;DHT22;43078;52.972;6.482;2022-12-10T07:41:26;-0.90;99.90
57218;DHT22;43078;52.972;6.482;2022-12-10T07:43:51;-0.90;99.90
57218;DHT22;43078;52.972;6.482;2022-12-10T07:46:29;-0.90;99.90
57218;DHT22;43078;52.972;6.482;2022-12-10T07:48:56;-0.80;99.90
57218;DHT22;43078;52.972;6.482;2022-12-10T07:51:22;-0.80;99.90
57218;DHT22;43078;52.972;6.482;2022-12-10T07:53:51;-0.80;99.90
57218;DHT22;43078;52.972;6.482;2022-12-10T07:56:16;-0.80;99.90
57218;DHT22;43078;52.972;6.482;2022-12-10T07:58:43;-0.80;99.90
57218;DHT22;43078;52.972;6.482;2022-12-10T08:01:15;-0.80;99.90
57218;DHT22;43078;52.972;6.482;2022-12-10T08:03:41;-0.80;99.90
57218;DHT22;43078;52.972;6.482;2022-12-10T08:06:12;-0.80;99.90
57218;DHT22;43078;52.972;6.482;2022-12-10T08:08:39;-0.80;99.90
57218;DHT22;43078;52.972;6.482;2022-12-10T08:11:05;-0.80;99.90
57218;DHT22;43078;52.972;6.482;2022-12-10T08:13:32;-0.70;99.90
57218;DHT22;43078;52.972;6.482;2022-12-10T08:16:10;-0.70;99.90
57218;DHT22;43078;52.972;6.482;2022-12-10T08:18:36;-0.70;99.90
57218;DHT22;43078;52.972;6.482;2022-12-10T08:21:06;-0.70;99.90
57218;DHT22;43078;52.972;6.482;2022-12-10T08:23:32;-0.70;99.90
57218;DHT22;43078;52.972;6.482;2022-12-10T08:25:58;-0.70;99.90
57218;DHT22;43078;52.972;6.482;2022-12-10T08:28:24;-0.70;99.90
57218;DHT22;43078;52.972;6.482;2022-12-10T08:30:50;-0.70;99.90
57218;DHT22;43078;52.972;6.482;2022-12-10T08:33:15;-0.70;99.90
57218;DHT22;43078;52.972;6.482;2022-12-10T08:35:41;-0.70;99.90
57218;DHT22;43078;52.972;6.482;2022-12-10T08:38:06;-0.60;99.90
57218;DHT22;43078;52.972;6.482;2022-12-10T08:40:32;-0.60;99.90
57218;DHT22;43078;52.972;6.482;2022-12-10T08:42:58;-0.60;99.90
57218;DHT22;43078;52.972;6.482;2022-12-10T08:45:23;-0.60;99.90
57218;DHT22;43078;52.972;6.482;2022-12-10T08:47:49;-0.60;99.90
57218;DHT22;43078;52.972;6.482;2022-12-10T08:50:14;-0.60;99.90
57218;DHT22;43078;52.972;6.482;2022-12-10T08:52:40;-0.60;99.90
57218;DHT22;43078;52.972;6.482;2022-12-10T08:55:06;-0.60;99.90
57218;DHT22;43078;52.972;6.482;2022-12-10T08:57:32;-0.50;99.90
57218;DHT22;43078;52.972;6.482;2022-12-10T08:59:58;-0.50;99.90
57218;DHT22;43078;52.972;6.482;2022-12-10T09:02:23;-0.50;99.90
57218;DHT22;43078;52.972;6.482;2022-12-10T09:04:50;-0.50;99.90
57218;DHT22;43078;52.972;6.482;2022-12-10T09:07:16;-0.50;99.90
57218;DHT22;43078;52.972;6.482;2022-12-10T09:09:41;-0.40;99.90
57218;DHT22;43078;52.972;6.482;2022-12-10T09:12:07;-0.40;99.90
57218;DHT22;43078;52.972;6.482;2022-12-10T09:14:32;-0.40;99.90
57218;DHT22;43078;52.972;6.482;2022-12-10T09:16:58;-0.40;99.90
57218;DHT22;43078;52.972;6.482;2022-12-10T09:19:24;-0.40;99.90
57218;DHT22;43078;52.972;6.482;2022-12-10T09:21:49;-0.30;99.90
57218;DHT22;43078;52.972;6.482;2022-12-10T09:24:15;-0.30;99.90
57218;DHT22;43078;52.972;6.482;2022-12-10T09:26:40;-0.30;99.90
57218;DHT22;43078;52.972;6.482;2022-12-10T09:29:06;-0.30;99.90
57218;DHT22;43078;52.972;6.482;2022-12-10T09:31:32;-0.30;99.90
57218;DHT22;43078;52.972;6.482;2022-12-10T09:33:57;-0.30;99.90
57218;DHT22;43078;52.972;6.482;2022-12-10T09:36:23;-0.30;99.90
57218;DHT22;43078;52.972;6.482;2022-12-10T09:38:49;-0.30;99.90
57218;DHT22;43078;52.972;6.482;2022-12-10T09:43:57;-0.20;99.90
57218;DHT22;43078;52.972;6.482;2022-12-10T09:52:23;-0.20;99.90
57218;DHT22;43078;52.972;6.482;2022-12-10T09:54:54;-0.30;99.90
57218;DHT22;43078;52.972;6.482;2022-12-10T09:57:36;-0.20;99.90
57218;DHT22;43078;52.972;6.482;2022-12-10T10:00:54;-0.20;99.90
57218;DHT22;43078;52.972;6.482;2022-12-10T10:02:56;-0.20;99.90
57218;DHT22;43078;52.972;6.482;2022-12-10T10:05:26;-0.20;99.90
57218;DHT22;43078;52.972;6.482;2022-12-10T10:07:55;-0.20;99.90
57218;DHT22;43078;52.972;6.482;2022-12-10T10:12:54;-0.20;99.90
57218;DHT22;43078;52.972;6.482;2022-12-10T10:15:25;-0.10;99.90
57218;DHT22;43078;52.972;6.482;2022-12-10T10:17:54;-0.10;99.90
57218;DHT22;43078;52.972;6.482;2022-12-10T10:20:21;-0.10;99.90
57218;DHT22;43078;52.972;6.482;2022-12-10T10:22:47;-0.10;99.90
57218;DHT22;43078;52.972;6.482;2022-12-10T10:25:17;-0.10;99.90
57218;DHT22;43078;52.972;6.482;2022-12-10T10:27:43;0.00;99.90
57218;DHT22;43078;52.972;6.482;2022-12-10T10:30:18;0.00;99.90
57218;DHT22;43078;52.972;6.482;2022-12-10T10:32:50;0.00;99.90
57218;DHT22;43078;52.972;6.482;2022-12-10T10:35:51;0.00;99.90
57218;DHT22;43078;52.972;6.482;2022-12-10T10:38:27;0.00;99.90
57218;DHT22;43078;52.972;6.482;2022-12-10T10:40:58;0.00;99.90
57218;DHT22;43078;52.972;6.482;2022-12-10T10:43:32;0.00;99.90
57218;DHT22;43078;52.972;6.482;2022-12-10T10:46:01;0.00;99.90
57218;DHT22;43078;52.972;6.482;2022-12-10T10:48:30;0.00;99.90
57218;DHT22;43078;52.972;6.482;2022-12-10T10:53:42;0.00;99.90
57218;DHT22;43078;52.972;6.482;2022-12-10T10:56:14;0.10;99.90
57218;DHT22;43078;52.972;6.482;2022-12-10T10:59:02;0.10;99.90
57218;DHT22;43078;52.972;6.482;2022-12-10T11:01:51;0.10;99.90
57218;DHT22;43078;52.972;6.482;2022-12-10T11:04:45;0.10;99.90
57218;DHT22;43078;52.972;6.482;2022-12-10T11:07:38;0.00;99.90
57218;DHT22;43078;52.972;6.482;2022-12-10T11:10:17;0.00;99.90
57218;DHT22;43078;52.972;6.482;2022-12-10T11:12:52;0.10;99.90
57218;DHT22;43078;52.972;6.482;2022-12-10T11:17:49;0.10;99.90
57218;DHT22;43078;52.972;6.482;2022-12-10T11:20:34;0.10;99.90
57218;DHT22;43078;52.972;6.482;2022-12-10T11:23:02;0.10;99.90
57218;DHT22;43078;52.972;6.482;2022-12-10T11:34:20;0.20;99.90
57218;DHT22;43078;52.972;6.482;2022-12-10T11:42:45;0.20;99.90
57218;DHT22;43078;52.972;6.482;2022-12-10T11:50:57;0.30;99.90
57218;DHT22;43078;52.972;6.482;2022-12-10T11:56:34;0.30;99.90
57218;DHT22;43078;52.972;6.482;2022-12-10T11:59:46;0.30;99.90
57218;DHT22;43078;52.972;6.482;2022-12-10T12:02:26;0.30;99.90
57218;DHT22;43078;52.972;6.482;2022-12-10T12:05:30;0.30;99.90
57218;DHT22;43078;52.972;6.482;2022-12-10T12:11:30;0.40;99.90
57218;DHT22;43078;52.972;6.482;2022-12-10T12:16:35;0.40;99.90
57218;DHT22;43078;52.972;6.482;2022-12-10T12:19:04;0.40;99.90
57218;DHT22;43078;52.972;6.482;2022-12-10T12:21:33;0.40;99.90
57218;DHT22;43078;52.972;6.482;2022-12-10T12:26:37;0.40;99.90
57218;DHT22;43078;52.972;6.482;2022-12-10T12:29:11;0.40;99.90
57218;DHT22;43078;52.972;6.482;2022-12-10T12:31:38;0.40;99.90
57218;DHT22;43078;52.972;6.482;2022-12-10T12:34:18;0.40;99.90
57218;DHT22;43078;52.972;6.482;2022-12-10T12:36:46;0.40;99.90
57218;DHT22;43078;52.972;6.482;2022-12-10T12:39:33;0.40;99.90
57218;DHT22;43078;52.972;6.482;2022-12-10T12:45:01;0.40;99.90
57218;DHT22;43078;52.972;6.482;2022-12-10T12:47:58;0.40;99.90
57218;DHT22;43078;52.972;6.482;2022-12-10T12:53:39;0.40;99.90
57218;DHT22;43078;52.972;6.482;2022-12-10T13:01:57;0.50;99.90
57218;DHT22;43078;52.972;6.482;2022-12-10T13:04:24;0.50;99.90
57218;DHT22;43078;52.972;6.482;2022-12-10T13:09:46;0.50;99.90
57218;DHT22;43078;52.972;6.482;2022-12-10T13:12:30;0.60;99.90
57218;DHT22;43078;52.972;6.482;2022-12-10T13:18:45;0.60;99.90
57218;DHT22;43078;52.972;6.482;2022-12-10T13:20:50;0.60;99.90
57218;DHT22;43078;52.972;6.482;2022-12-10T13:39:54;0.60;99.90
57218;DHT22;43078;52.972;6.482;2022-12-10T13:45:02;0.60;99.90
57218;DHT22;43078;52.972;6.482;2022-12-10T13:50:04;0.60;99.90
57218;DHT22;43078;52.972;6.482;2022-12-10T13:52:32;0.60;99.90
57218;DHT22;43078;52.972;6.482;2022-12-10T14:00:59;0.60;99.90
57218;DHT22;43078;52.972;6.482;2022-12-10T14:04:11;0.60;99.90
57218;DHT22;43078;52.972;6.482;2022-12-10T14:06:41;0.70;99.90
57218;DHT22;43078;52.972;6.482;2022-12-10T14:09:18;0.70;99.90
57218;DHT22;43078;52.972;6.482;2022-12-10T14:11:57;0.70;99.90
57218;DHT22;43078;52.972;6.482;2022-12-10T14:17:00;0.70;99.90
57218;DHT22;43078;52.972;6.482;2022-12-10T14:19:27;0.70;99.90
57218;DHT22;43078;52.972;6.482;2022-12-10T14:21:53;0.70;99.90
57218;DHT22;43078;52.972;6.482;2022-12-10T14:24:35;0.70;99.90
57218;DHT22;43078;52.972;6.482;2022-12-10T14:27:13;0.80;99.90
57218;DHT22;43078;52.972;6.482;2022-12-10T14:29:44;0.70;99.90
57218;DHT22;43078;52.972;6.482;2022-12-10T14:32:23;0.80;99.90
57218;DHT22;43078;52.972;6.482;2022-12-10T14:34:54;0.80;99.90
57218;DHT22;43078;52.972;6.482;2022-12-10T14:37:29;0.80;99.90
57218;DHT22;43078;52.972;6.482;2022-12-10T14:39:56;0.80;99.90
57218;DHT22;43078;52.972;6.482;2022-12-10T14:42:22;0.80;99.90
57218;DHT22;43078;52.972;6.482;2022-12-10T14:44:55;0.80;99.90
57218;DHT22;43078;52.972;6.482;2022-12-10T14:47:22;0.80;99.90
57218;DHT22;43078;52.972;6.482;2022-12-10T14:49:50;0.80;99.90
57218;DHT22;43078;52.972;6.482;2022-12-10T14:52:31;0.80;99.90
57218;DHT22;43078;52.972;6.482;2022-12-10T14:54:58;0.80;99.90
57218;DHT22;43078;52.972;6.482;2022-12-10T14:57:30;0.80;99.90
57218;DHT22;43078;52.972;6.482;2022-12-10T15:02:31;0.80;99.90
57218;DHT22;43078;52.972;6.482;2022-12-10T15:04:59;0.70;99.90
57218;DHT22;43078;52.972;6.482;2022-12-10T15:07:32;0.70;99.90
57218;DHT22;43078;52.972;6.482;2022-12-10T15:10:02;0.80;99.90
57218;DHT22;43078;52.972;6.482;2022-12-10T15:12:35;0.80;99.90
57218;DHT22;43078;52.972;6.482;2022-12-10T15:15:12;0.80;99.90
57218;DHT22;43078;52.972;6.482;2022-12-10T15:17:55;0.80;99.90
57218;DHT22;43078;52.972;6.482;2022-12-10T15:20:37;0.80;99.90
57218;DHT22;43078;52.972;6.482;2022-12-10T15:28:33;0.80;99.90
57218;DHT22;43078;52.972;6.482;2022-12-10T15:33:50;0.80;99.90
57218;DHT22;43078;52.972;6.482;2022-12-10T15:38:47;0.80;99.90
57218;DHT22;43078;52.972;6.482;2022-12-10T15:41:55;0.80;99.90
57218;DHT22;43078;52.972;6.482;2022-12-10T15:47:01;0.80;99.90
57218;DHT22;43078;52.972;6.482;2022-12-10T15:49:29;0.80;99.90
57218;DHT22;43078;52.972;6.482;2022-12-10T15:51:55;0.80;99.90
57218;DHT22;43078;52.972;6.482;2022-12-10T15:56:51;0.80;99.90
57218;DHT22;43078;52.972;6.482;2022-12-10T15:59:17;0.80;99.90
57218;DHT22;43078;52.972;6.482;2022-12-10T16:01:42;0.80;99.90
57218;DHT22;43078;52.972;6.482;2022-12-10T16:04:09;0.80;99.90
57218;DHT22;43078;52.972;6.482;2022-12-10T16:06:34;0.80;99.90
57218;DHT22;43078;52.972;6.482;2022-12-10T16:09:00;0.70;99.90
57218;DHT22;43078;52.972;6.482;2022-12-10T16:11:25;0.70;99.90
57218;DHT22;43078;52.972;6.482;2022-12-10T16:13:53;0.80;99.90
57218;DHT22;43078;52.972;6.482;2022-12-10T16:16:21;0.80;99.90
57218;DHT22;43078;52.972;6.482;2022-12-10T16:18:46;0.80;99.90
57218;DHT22;43078;52.972;6.482;2022-12-10T16:21:15;0.80;99.90
57218;DHT22;43078;52.972;6.482;2022-12-10T16:23:41;0.70;99.90
57218;DHT22;43078;52.972;6.482;2022-12-10T16:26:17;0.70;99.90
57218;DHT22;43078;52.972;6.482;2022-12-10T16:28:44;0.70;99.90
57218;DHT22;43078;52.972;6.482;2022-12-10T16:31:12;0.70;99.90
57218;DHT22;43078;52.972;6.482;2022-12-10T16:33:39;0.70;99.90
57218;DHT22;43078;52.972;6.482;2022-12-10T16:36:05;0.60;99.90
57218;DHT22;43078;52.972;6.482;2022-12-10T16:38:30;0.60;99.90
57218;DHT22;43078;52.972;6.482;2022-12-10T16:40:56;0.60;99.90
57218;DHT22;43078;52.972;6.482;2022-12-10T16:43:25;0.60;99.90
57218;DHT22;43078;52.972;6.482;2022-12-10T16:45:52;0.60;99.90
57218;DHT22;43078;52.972;6.482;2022-12-10T16:48:18;0.50;99.90
57218;DHT22;43078;52.972;6.482;2022-12-10T16:50:45;0.50;99.90
57218;DHT22;43078;52.972;6.482;2022-12-10T16:53:24;0.50;99.90
57218;DHT22;43078;52.972;6.482;2022-12-10T16:55:51;0.50;99.90
57218;DHT22;43078;52.972;6.482;2022-12-10T16:58:18;0.50;99.90
57218;DHT22;43078;52.972;6.482;2022-12-10T17:00:48;0.40;99.90
57218;DHT22;43078;52.972;6.482;2022-12-10T17:03:20;0.40;99.90
57218;DHT22;43078;52.972;6.482;2022-12-10T17:05:54;0.40;99.90
57218;DHT22;43078;52.972;6.482;2022-12-10T17:10:45;0.40;99.90
57218;DHT22;43078;52.972;6.482;2022-12-10T17:13:29;0.40;99.90
57218;DHT22;43078;52.972;6.482;2022-12-10T17:15:56;0.40;99.90
57218;DHT22;43078;52.972;6.482;2022-12-10T17:18:22;0.40;99.90
57218;DHT22;43078;52.972;6.482;2022-12-10T17:20:49;0.40;99.90
57218;DHT22;43078;52.972;6.482;2022-12-10T17:23:15;0.40;99.90
57218;DHT22;43078;52.972;6.482;2022-12-10T17:25:41;0.40;99.90
57218;DHT22;43078;52.972;6.482;2022-12-10T17:28:13;0.50;99.90
57218;DHT22;43078;52.972;6.482;2022-12-10T17:30:39;0.50;99.90
57218;DHT22;43078;52.972;6.482;2022-12-10T17:33:05;0.50;99.90
57218;DHT22;43078;52.972;6.482;2022-12-10T17:35:30;0.60;99.90
57218;DHT22;43078;52.972;6.482;2022-12-10T17:37:56;0.60;99.90
57218;DHT22;43078;52.972;6.482;2022-12-10T17:40:22;0.60;99.90
57218;DHT22;43078;52.972;6.482;2022-12-10T17:42:48;0.50;99.90
57218;DHT22;43078;52.972;6.482;2022-12-10T17:45:17;0.60;99.90
57218;DHT22;43078;52.972;6.482;2022-12-10T17:47:43;0.60;99.90
57218;DHT22;43078;52.972;6.482;2022-12-10T17:50:42;0.60;99.90
57218;DHT22;43078;52.972;6.482;2022-12-10T17:53:09;0.60;99.90
57218;DHT22;43078;52.972;6.482;2022-12-10T17:55:40;0.60;99.90
57218;DHT22;43078;52.972;6.482;2022-12-10T17:58:06;0.60;99.90
57218;DHT22;43078;52.972;6.482;2022-12-10T18:00:34;0.70;99.90
57218;DHT22;43078;52.972;6.482;2022-12-10T18:03:00;0.70;99.90
57218;DHT22;43078;52.972;6.482;2022-12-10T18:05:26;0.70;99.90
57218;DHT22;43078;52.972;6.482;2022-12-10T18:07:52;0.70;99.90
57218;DHT22;43078;52.972;6.482;2022-12-10T18:10:29;0.70;99.90
57218;DHT22;43078;52.972;6.482;2022-12-10T18:12:56;0.70;99.90